createdAt,value
2018-01-25T00:00:39.196Z,1.78
2018-01-25T00:01:39.066Z,1.87
2018-01-25T00:02:38.940Z,1.90
2018-01-25T00:03:38.804Z,1.85
2018-01-25T00:04:38.674Z,1.82
2018-01-25T00:05:38.548Z,1.87
2018-01-25T00:06:38.415Z,1.85
2018-01-25T00:07:38.283Z,1.87
2018-01-25T00:08:38.153Z,1.85
2018-01-25T00:09:38.020Z,1.90
2018-01-25T00:10:37.890Z,1.85
2018-01-25T00:11:37.761Z,1.91
2018-01-25T00:12:37.632Z,1.87
2018-01-25T00:13:37.502Z,1.89
2018-01-25T00:14:37.372Z,1.83
2018-01-25T00:15:37.239Z,1.85
2018-01-25T00:16:37.108Z,1.87
2018-01-25T00:17:36.980Z,1.93
2018-01-25T00:18:36.848Z,1.90
2018-01-25T00:19:36.716Z,1.90
2018-01-25T00:20:36.587Z,1.97
2018-01-25T00:21:36.456Z,1.93
2018-01-25T00:22:36.325Z,1.89
2018-01-25T00:23:36.195Z,1.90
2018-01-25T00:24:36.064Z,1.98
2018-01-25T00:25:35.933Z,2.01
2018-01-25T00:26:35.820Z,1.94
2018-01-25T00:27:35.673Z,1.98
2018-01-25T00:28:35.543Z,2.02
2018-01-25T00:29:35.414Z,1.91
2018-01-25T00:30:35.280Z,1.87
2018-01-25T00:31:35.152Z,1.94
2018-01-25T00:32:35.022Z,1.98
2018-01-25T00:33:34.892Z,1.91
2018-01-25T00:34:34.761Z,1.85
2018-01-25T00:35:34.631Z,1.91
2018-01-25T00:36:34.500Z,1.85
2018-01-25T00:37:34.370Z,1.80
2018-01-25T00:38:34.242Z,1.80
2018-01-25T00:39:34.107Z,1.83
2018-01-25T00:40:33.981Z,1.83
2018-01-25T00:41:33.848Z,1.82
2018-01-25T00:42:33.718Z,1.85
2018-01-25T00:43:33.588Z,1.82
2018-01-25T00:44:33.457Z,1.89
2018-01-25T00:45:33.327Z,1.89
2018-01-25T00:46:33.195Z,1.83
2018-01-25T00:47:33.071Z,1.85
2018-01-25T00:48:32.937Z,1.82
2018-01-25T00:49:32.806Z,1.89
2018-01-25T00:50:32.676Z,1.85
2018-01-25T00:51:32.546Z,1.97
2018-01-25T00:52:32.414Z,1.91
2018-01-25T00:53:32.286Z,1.94
2018-01-25T00:54:32.155Z,1.85
2018-01-25T00:55:32.034Z,1.82
2018-01-25T00:56:31.892Z,1.75
2018-01-25T00:57:31.761Z,1.76
2018-01-25T00:58:31.631Z,1.61
2018-01-25T00:59:31.504Z,1.60
2018-01-25T01:00:31.374Z,1.73
2018-01-25T01:01:31.240Z,1.73
2018-01-25T01:02:31.109Z,1.78
2018-01-25T01:03:30.978Z,1.82
2018-01-25T01:04:30.850Z,1.72
2018-01-25T01:05:30.718Z,1.71
2018-01-25T01:06:30.587Z,1.71
2018-01-25T01:07:30.456Z,1.61
2018-01-25T01:08:30.326Z,1.62
2018-01-25T01:09:30.195Z,1.65
2018-01-25T01:10:30.066Z,1.68
2018-01-25T01:11:29.934Z,1.65
2018-01-25T01:12:29.802Z,1.61
2018-01-25T01:13:29.676Z,1.69
2018-01-25T01:14:29.543Z,1.75
2018-01-25T01:15:29.412Z,1.85
2018-01-25T01:16:29.281Z,1.76
2018-01-25T01:17:29.149Z,1.73
2018-01-25T01:18:29.020Z,1.79
2018-01-25T01:19:28.888Z,1.83
2018-01-25T01:20:28.778Z,1.87
2018-01-25T01:21:28.629Z,1.79
2018-01-25T01:22:28.499Z,1.78
2018-01-25T01:23:28.366Z,1.76
2018-01-25T01:24:28.235Z,1.72
2018-01-25T01:25:28.107Z,1.82
2018-01-25T01:26:27.977Z,1.71
2018-01-25T01:27:27.844Z,1.62
2018-01-25T01:28:27.714Z,1.62
2018-01-25T01:29:27.582Z,1.65
2018-01-25T01:30:27.454Z,1.73
2018-01-25T01:31:27.320Z,1.65
2018-01-25T01:32:27.197Z,1.78
2018-01-25T01:33:27.061Z,1.72
2018-01-25T01:34:26.932Z,1.68
2018-01-25T01:35:26.799Z,1.76
2018-01-25T01:36:26.671Z,1.64
2018-01-25T01:37:26.539Z,1.72
2018-01-25T01:38:26.410Z,1.61
2018-01-25T01:39:26.278Z,1.68
2018-01-25T01:40:26.146Z,1.68
2018-01-25T01:41:26.018Z,1.60
2018-01-25T01:42:25.885Z,1.61
2018-01-25T01:43:25.757Z,1.65
2018-01-25T01:44:25.625Z,1.65
2018-01-25T01:45:25.495Z,1.73
2018-01-25T01:46:25.363Z,1.76
2018-01-25T01:47:25.234Z,1.76
2018-01-25T01:48:25.101Z,1.82
2018-01-25T01:49:24.975Z,1.75
2018-01-25T01:50:24.842Z,1.69
2018-01-25T01:51:24.713Z,1.73
2018-01-25T01:52:24.581Z,1.75
2018-01-25T01:53:24.451Z,1.75
2018-01-25T01:54:24.321Z,1.72
2018-01-25T01:55:24.191Z,1.79
2018-01-25T01:56:24.061Z,1.82
2018-01-25T01:57:23.929Z,1.72
2018-01-25T01:58:23.797Z,1.71
2018-01-25T01:59:23.669Z,1.72
2018-01-25T02:00:23.536Z,1.76
2018-01-25T02:01:23.404Z,1.75
2018-01-25T02:02:23.275Z,1.62
2018-01-25T02:03:23.143Z,1.73
2018-01-25T02:04:23.016Z,1.73
2018-01-25T02:05:22.884Z,1.69
2018-01-25T02:06:22.753Z,1.82
2018-01-25T02:07:22.627Z,1.73
2018-01-25T02:08:22.490Z,1.78
2018-01-25T02:09:22.362Z,1.76
2018-01-25T02:10:22.231Z,1.78
2018-01-25T02:11:22.100Z,1.69
2018-01-25T02:12:21.971Z,1.69
2018-01-25T02:13:21.842Z,1.65
2018-01-25T02:14:21.710Z,1.68
2018-01-25T02:15:21.578Z,1.78
2018-01-25T02:16:21.447Z,1.75
2018-01-25T02:17:21.320Z,1.69
2018-01-25T02:18:21.188Z,1.80
2018-01-25T02:19:21.056Z,1.75
2018-01-25T02:20:20.925Z,1.71
2018-01-25T02:21:20.796Z,1.68
2018-01-25T02:22:20.665Z,1.72
2018-01-25T02:23:20.536Z,1.62
2018-01-25T02:24:20.406Z,1.71
2018-01-25T02:25:20.276Z,1.60
2018-01-25T02:26:20.143Z,1.61
2018-01-25T02:27:20.012Z,1.69
2018-01-25T02:28:19.884Z,1.58
2018-01-25T02:29:19.757Z,1.65
2018-01-25T02:30:19.621Z,1.65
2018-01-25T02:31:19.491Z,1.65
2018-01-25T02:32:19.361Z,1.62
2018-01-25T02:33:19.229Z,1.68
2018-01-25T02:34:19.100Z,1.65
2018-01-25T02:35:18.968Z,1.69
2018-01-25T02:36:18.838Z,1.68
2018-01-25T02:37:18.704Z,1.62
2018-01-25T02:38:18.576Z,1.69
2018-01-25T02:39:18.446Z,1.64
2018-01-25T02:40:18.317Z,1.62
2018-01-25T02:41:18.182Z,1.54
2018-01-25T02:42:18.055Z,1.57
2018-01-25T02:43:17.928Z,1.52
2018-01-25T02:44:17.794Z,1.47
2018-01-25T02:45:17.665Z,1.52
2018-01-25T02:46:17.530Z,1.52
2018-01-25T02:47:17.401Z,1.46
2018-01-25T02:48:17.273Z,1.39
2018-01-25T02:49:17.142Z,1.39
2018-01-25T02:50:17.011Z,1.40
2018-01-25T02:51:16.881Z,1.42
2018-01-25T02:52:16.750Z,1.47
2018-01-25T02:53:16.619Z,1.52
2018-01-25T02:54:16.491Z,1.55
2018-01-25T02:55:16.360Z,1.54
2018-01-25T02:56:16.228Z,1.52
2018-01-25T02:57:16.097Z,1.57
2018-01-25T02:58:15.968Z,1.47
2018-01-25T02:59:15.836Z,1.47
2018-01-25T03:00:15.707Z,1.51
2018-01-25T03:01:15.577Z,1.37
2018-01-25T03:02:15.446Z,1.52
2018-01-25T03:03:15.315Z,1.50
2018-01-25T03:04:15.188Z,1.47
2018-01-25T03:05:15.053Z,1.47
2018-01-25T03:06:14.925Z,1.33
2018-01-25T03:07:14.796Z,1.37
2018-01-25T03:08:14.663Z,1.36
2018-01-25T03:09:14.534Z,1.37
2018-01-25T03:10:14.408Z,1.37
2018-01-25T03:11:14.272Z,1.51
2018-01-25T03:12:14.142Z,1.43
2018-01-25T03:13:14.040Z,1.42
2018-01-25T03:14:13.882Z,1.52
2018-01-25T03:15:13.750Z,1.52
2018-01-25T03:16:13.621Z,1.51
2018-01-25T03:17:13.488Z,1.57
2018-01-25T03:18:13.358Z,1.57
2018-01-25T03:19:13.227Z,1.62
2018-01-25T03:20:13.094Z,1.64
2018-01-25T03:21:12.965Z,1.71
2018-01-25T03:22:12.835Z,1.65
2018-01-25T03:23:12.707Z,1.64
2018-01-25T03:24:12.572Z,1.62
2018-01-25T03:25:12.466Z,1.60
2018-01-25T03:26:12.313Z,1.54
2018-01-25T03:27:12.181Z,1.47
2018-01-25T03:28:12.053Z,1.54
2018-01-25T03:29:11.921Z,1.55
2018-01-25T03:30:11.792Z,1.54
2018-01-25T03:31:11.663Z,1.54
2018-01-25T03:32:11.530Z,1.61
2018-01-25T03:33:11.400Z,1.51
2018-01-25T03:34:11.267Z,1.60
2018-01-25T03:35:11.137Z,1.54
2018-01-25T03:36:11.006Z,1.52
2018-01-25T03:37:10.877Z,1.60
2018-01-25T03:38:10.746Z,1.61
2018-01-25T03:39:10.614Z,1.64
2018-01-25T03:40:10.482Z,1.68
2018-01-25T03:41:10.355Z,1.64
2018-01-25T03:42:10.223Z,1.61
2018-01-25T03:43:10.092Z,1.62
2018-01-25T03:44:09.962Z,1.78
2018-01-25T03:45:09.833Z,1.76
2018-01-25T03:46:09.704Z,1.76
2018-01-25T03:47:09.570Z,1.69
2018-01-25T03:48:09.441Z,1.61
2018-01-25T03:49:09.311Z,1.65
2018-01-25T03:50:09.180Z,1.62
2018-01-25T03:51:09.046Z,1.71
2018-01-25T03:52:08.918Z,1.65
2018-01-25T03:53:08.788Z,1.79
2018-01-25T03:54:08.656Z,1.71
2018-01-25T03:55:08.523Z,1.61
2018-01-25T03:56:08.396Z,1.64
2018-01-25T03:57:08.265Z,1.69
2018-01-25T03:58:08.134Z,1.64
2018-01-25T03:59:08.002Z,1.52
2018-01-25T04:00:07.874Z,1.57
2018-01-25T04:01:07.747Z,1.57
2018-01-25T04:02:07.611Z,1.68
2018-01-25T04:03:07.481Z,1.75
2018-01-25T04:04:07.352Z,1.85
2018-01-25T04:05:07.222Z,1.71
2018-01-25T04:06:07.092Z,1.75
2018-01-25T04:07:06.960Z,1.79
2018-01-25T04:08:06.828Z,1.82
2018-01-25T04:09:06.697Z,1.72
2018-01-25T04:10:06.567Z,1.87
2018-01-25T04:11:06.436Z,1.83
2018-01-25T04:12:06.308Z,1.85
2018-01-25T04:13:06.177Z,1.87
2018-01-25T04:14:06.051Z,1.76
2018-01-25T04:15:05.914Z,1.78
2018-01-25T04:16:05.785Z,1.72
2018-01-25T04:17:05.653Z,1.75
2018-01-25T04:18:05.523Z,1.61
2018-01-25T04:19:05.397Z,1.62
2018-01-25T04:20:05.263Z,1.61
2018-01-25T04:21:05.132Z,1.62
2018-01-25T04:22:05.001Z,1.68
2018-01-25T04:23:04.870Z,1.78
2018-01-25T04:24:04.740Z,1.82
2018-01-25T04:25:04.610Z,1.82
2018-01-25T04:26:04.479Z,1.80
2018-01-25T04:27:04.347Z,1.80
2018-01-25T04:28:04.218Z,1.79
2018-01-25T04:29:04.087Z,1.90
2018-01-25T04:30:03.955Z,1.85
2018-01-25T04:31:03.825Z,1.97
2018-01-25T04:32:03.696Z,2.09
2018-01-25T04:33:03.566Z,2.08
2018-01-25T04:34:03.434Z,2.09
2018-01-25T04:35:03.305Z,2.08
2018-01-25T04:36:03.172Z,1.99
2018-01-25T04:37:03.044Z,2.02
2018-01-25T04:38:02.913Z,2.01
2018-01-25T04:39:02.780Z,1.99
2018-01-25T04:40:02.651Z,1.97
2018-01-25T04:41:02.523Z,1.87
2018-01-25T04:42:02.391Z,1.79
2018-01-25T04:43:02.269Z,1.85
2018-01-25T04:44:02.131Z,1.89
2018-01-25T04:45:02.003Z,1.83
2018-01-25T04:46:02.006Z,1.89
2018-01-25T04:47:01.742Z,1.82
2018-01-25T04:48:01.611Z,1.83
2018-01-25T04:49:01.480Z,1.94
2018-01-25T04:50:01.351Z,2.04
2018-01-25T04:51:01.221Z,1.94
2018-01-25T04:52:01.139Z,1.87
2018-01-25T04:53:00.959Z,1.94
2018-01-25T04:54:00.851Z,1.99
2018-01-25T04:55:00.696Z,1.97
2018-01-25T04:56:00.570Z,1.87
2018-01-25T04:57:00.437Z,1.89
2018-01-25T04:58:00.307Z,1.85
2018-01-25T04:59:00.178Z,1.80
2018-01-25T05:00:00.046Z,1.80
2018-01-25T05:00:59.916Z,1.83
2018-01-25T05:01:59.784Z,1.85
2018-01-25T05:02:59.656Z,1.97
2018-01-25T05:03:59.522Z,1.94
2018-01-25T05:04:59.395Z,2.01
2018-01-25T05:05:59.293Z,1.98
2018-01-25T05:06:59.135Z,2.01
2018-01-25T05:07:59.004Z,2.01
2018-01-25T05:08:58.874Z,1.97
2018-01-25T05:09:58.745Z,1.93
2018-01-25T05:10:58.611Z,1.94
2018-01-25T05:11:58.483Z,1.94
2018-01-25T05:12:58.350Z,1.99
2018-01-25T05:13:58.222Z,2.02
2018-01-25T05:14:58.091Z,2.12
2018-01-25T05:15:58.109Z,2.15
2018-01-25T05:16:57.830Z,2.12
2018-01-25T05:17:57.699Z,2.02
2018-01-25T05:18:57.572Z,2.01
2018-01-25T05:19:57.437Z,2.01
2018-01-25T05:20:57.311Z,2.04
2018-01-25T05:21:57.178Z,1.98
2018-01-25T05:22:57.047Z,1.82
2018-01-25T05:23:56.920Z,1.85
2018-01-25T05:24:56.787Z,1.89
2018-01-25T05:25:56.658Z,1.87
2018-01-25T05:26:56.527Z,2.02
2018-01-25T05:27:56.396Z,1.94
2018-01-25T05:28:56.269Z,2.01
2018-01-25T05:29:56.137Z,2.04
2018-01-25T05:30:56.006Z,2.01
2018-01-25T05:31:55.876Z,1.93
2018-01-25T05:32:55.748Z,2.06
2018-01-25T05:33:55.618Z,2.12
2018-01-25T05:34:55.485Z,2.13
2018-01-25T05:35:55.355Z,1.98
2018-01-25T05:36:55.226Z,2.01
2018-01-25T05:37:55.132Z,2.02
2018-01-25T05:38:54.973Z,1.98
2018-01-25T05:39:54.833Z,1.98
2018-01-25T05:40:54.707Z,2.02
2018-01-25T05:41:54.601Z,2.02
2018-01-25T05:42:54.442Z,1.94
2018-01-25T05:43:54.312Z,1.89
2018-01-25T05:44:54.184Z,2.02
2018-01-25T05:45:54.060Z,2.01
2018-01-25T05:46:53.921Z,1.93
2018-01-25T05:47:53.795Z,2.01
2018-01-25T05:48:53.663Z,1.94
2018-01-25T05:49:53.531Z,1.93
2018-01-25T05:50:53.452Z,1.98
2018-01-25T05:51:53.270Z,1.99
2018-01-25T05:52:53.142Z,2.01
2018-01-25T05:53:53.014Z,2.01
2018-01-25T05:54:52.880Z,2.01
2018-01-25T05:55:52.751Z,1.93
2018-01-25T05:56:52.619Z,1.98
2018-01-25T05:57:52.488Z,1.91
2018-01-25T05:58:52.356Z,1.87
2018-01-25T05:59:52.229Z,1.89
2018-01-25T06:00:52.098Z,1.83
2018-01-25T06:01:51.968Z,1.83
2018-01-25T06:02:51.840Z,1.76
2018-01-25T06:03:51.707Z,1.79
2018-01-25T06:04:51.578Z,1.78
2018-01-25T06:05:51.446Z,1.64
2018-01-25T06:06:51.315Z,1.68
2018-01-25T06:07:51.187Z,1.69
2018-01-25T06:08:51.056Z,1.69
2018-01-25T06:09:50.929Z,1.71
2018-01-25T06:10:50.798Z,1.73
2018-01-25T06:11:50.666Z,1.73
2018-01-25T06:12:50.536Z,1.75
2018-01-25T06:13:50.406Z,1.61
2018-01-25T06:14:50.275Z,1.69
2018-01-25T06:15:50.146Z,1.62
2018-01-25T06:16:50.015Z,1.57
2018-01-25T06:17:49.885Z,1.62
2018-01-25T06:18:49.755Z,1.65
2018-01-25T06:19:49.625Z,1.76
2018-01-25T06:20:49.495Z,1.78
2018-01-25T06:21:49.366Z,1.89
2018-01-25T06:22:49.237Z,1.82
2018-01-25T06:23:49.105Z,1.83
2018-01-25T06:24:48.973Z,1.78
2018-01-25T06:25:48.843Z,1.89
2018-01-25T06:26:48.710Z,1.85
2018-01-25T06:27:48.582Z,1.80
2018-01-25T06:28:48.451Z,1.80
2018-01-25T06:29:48.322Z,1.82
2018-01-25T06:30:48.191Z,1.83
2018-01-25T06:31:48.057Z,1.91
2018-01-25T06:32:47.929Z,1.93
2018-01-25T06:33:47.819Z,1.89
2018-01-25T06:34:47.852Z,1.75
2018-01-25T06:35:47.539Z,1.83
2018-01-25T06:36:47.408Z,1.91
2018-01-25T06:37:47.279Z,1.91
2018-01-25T06:38:47.149Z,1.94
2018-01-25T06:39:47.017Z,1.91
2018-01-25T06:40:47.572Z,1.98
2018-01-25T06:41:46.760Z,1.98
2018-01-25T06:42:46.628Z,1.99
2018-01-25T06:43:46.496Z,2.09
2018-01-25T06:44:46.366Z,2.09
2018-01-25T06:45:46.240Z,2.12
2018-01-25T06:46:46.104Z,2.01
2018-01-25T06:47:45.974Z,2.02
2018-01-25T06:48:45.842Z,1.93
2018-01-25T06:49:45.711Z,1.94
2018-01-25T06:50:45.581Z,2.01
2018-01-25T06:51:45.451Z,1.87
2018-01-25T06:52:45.322Z,1.97
2018-01-25T06:53:45.193Z,1.90
2018-01-25T06:54:45.060Z,1.98
2018-01-25T06:55:44.931Z,1.97
2018-01-25T06:56:44.799Z,1.94
2018-01-25T06:57:44.668Z,1.89
2018-01-25T06:58:44.538Z,1.98
2018-01-25T06:59:44.407Z,1.97
2018-01-25T07:00:44.279Z,1.82
2018-01-25T07:01:44.149Z,1.73
2018-01-25T07:02:44.019Z,1.91
2018-01-25T07:03:43.889Z,1.97
2018-01-25T07:04:43.757Z,1.99
2018-01-25T07:05:43.627Z,2.02
2018-01-25T07:06:43.498Z,2.01
2018-01-25T07:07:43.365Z,1.99
2018-01-25T07:08:43.236Z,1.99
2018-01-25T07:09:43.106Z,1.98
2018-01-25T07:10:42.974Z,1.93
2018-01-25T07:11:42.845Z,1.91
2018-01-25T07:12:42.715Z,1.93
2018-01-25T07:13:42.586Z,1.93
2018-01-25T07:14:42.452Z,1.98
2018-01-25T07:15:42.324Z,1.90
2018-01-25T07:16:42.193Z,2.02
2018-01-25T07:17:42.063Z,2.10
2018-01-25T07:18:41.933Z,2.13
2018-01-25T07:19:41.802Z,2.08
2018-01-25T07:20:41.672Z,1.98
2018-01-25T07:21:41.572Z,2.02
2018-01-25T07:22:41.410Z,2.15
2018-01-25T07:23:41.277Z,2.45
2018-01-25T07:24:41.151Z,2.46
2018-01-25T07:25:41.020Z,2.55
2018-01-25T07:26:40.889Z,2.41
2018-01-25T07:27:40.761Z,2.40
2018-01-25T07:28:40.630Z,2.23
2018-01-25T07:29:40.499Z,2.23
2018-01-25T07:30:40.370Z,2.27
2018-01-25T07:31:40.239Z,2.28
2018-01-25T07:32:40.110Z,2.30
2018-01-25T07:33:39.979Z,2.28
2018-01-25T07:34:39.857Z,2.31
2018-01-25T07:35:39.718Z,2.31
2018-01-25T07:36:39.591Z,2.26
2018-01-25T07:37:39.460Z,2.12
2018-01-25T07:38:39.327Z,2.19
2018-01-25T07:39:39.199Z,2.15
2018-01-25T07:40:39.067Z,2.44
2018-01-25T07:41:38.939Z,2.45
2018-01-25T07:42:38.806Z,2.48
2018-01-25T07:43:38.676Z,2.49
2018-01-25T07:44:38.548Z,2.38
2018-01-25T07:45:38.419Z,2.38
2018-01-25T07:46:38.290Z,2.34
2018-01-25T07:47:38.158Z,2.48
2018-01-25T07:48:38.032Z,2.45
2018-01-25T07:49:37.900Z,2.51
2018-01-25T07:50:37.766Z,2.53
2018-01-25T07:51:37.636Z,2.56
2018-01-25T07:52:37.510Z,2.61
2018-01-25T07:53:37.377Z,2.63
2018-01-25T07:54:37.246Z,2.61
2018-01-25T07:55:37.120Z,2.59
2018-01-25T07:56:36.986Z,2.51
2018-01-25T07:57:36.857Z,2.44
2018-01-25T07:58:36.732Z,2.40
2018-01-25T07:59:36.597Z,2.34
2018-01-25T08:00:36.512Z,2.13
2018-01-25T08:01:36.341Z,2.30
2018-01-25T08:02:36.205Z,2.10
2018-01-25T08:03:36.076Z,2.22
2018-01-25T08:04:35.947Z,2.16
2018-01-25T08:05:35.816Z,2.15
2018-01-25T08:06:35.686Z,2.09
2018-01-25T08:07:35.559Z,1.98
2018-01-25T08:08:35.427Z,1.91
2018-01-25T08:09:35.301Z,1.94
2018-01-25T08:10:35.166Z,2.02
2018-01-25T08:11:35.038Z,2.01
2018-01-25T08:12:34.913Z,2.12
2018-01-25T08:13:34.778Z,2.10
2018-01-25T08:14:34.646Z,2.23
2018-01-25T08:15:34.516Z,2.30
2018-01-25T08:16:34.386Z,2.26
2018-01-25T08:17:34.259Z,2.41
2018-01-25T08:18:34.126Z,2.52
2018-01-25T08:19:33.996Z,2.59
2018-01-25T08:20:33.870Z,2.61
2018-01-25T08:21:33.740Z,2.63
2018-01-25T08:22:33.608Z,2.63
2018-01-25T08:23:33.480Z,2.64
2018-01-25T08:24:33.349Z,2.61
2018-01-25T08:25:33.217Z,2.63
2018-01-25T08:26:33.088Z,2.56
2018-01-25T08:27:32.958Z,2.55
2018-01-25T08:28:32.832Z,2.64
2018-01-25T08:29:32.700Z,2.53
2018-01-25T08:30:32.571Z,2.64
2018-01-25T08:31:32.440Z,2.59
2018-01-25T08:32:32.314Z,2.59
2018-01-25T08:33:32.181Z,2.70
2018-01-25T08:34:32.051Z,2.74
2018-01-25T08:35:31.919Z,2.74
2018-01-25T08:36:31.793Z,2.71
2018-01-25T08:37:31.664Z,2.73
2018-01-25T08:38:31.533Z,2.69
2018-01-25T08:39:31.405Z,2.67
2018-01-25T08:40:31.274Z,2.66
2018-01-25T08:41:33.226Z,2.58
2018-01-25T08:42:31.015Z,2.61
2018-01-25T08:43:30.888Z,2.67
2018-01-25T08:44:30.757Z,2.63
2018-01-25T08:45:30.627Z,2.58
2018-01-25T08:46:30.499Z,2.61
2018-01-25T08:47:30.369Z,2.64
2018-01-25T08:48:30.241Z,2.58
2018-01-25T08:49:30.111Z,2.69
2018-01-25T08:50:30.042Z,2.61
2018-01-25T08:51:29.851Z,2.58
2018-01-25T08:52:29.725Z,2.61
2018-01-25T08:53:29.597Z,2.64
2018-01-25T08:54:29.466Z,2.63
2018-01-25T08:55:29.335Z,2.51
2018-01-25T08:56:29.209Z,2.63
2018-01-25T08:57:29.078Z,2.70
2018-01-25T08:58:28.951Z,2.77
2018-01-25T08:59:28.821Z,2.97
2018-01-25T09:00:28.691Z,3.02
2018-01-25T09:01:28.566Z,3.09
2018-01-25T09:02:28.434Z,3.07
2018-01-25T09:03:28.305Z,3.21
2018-01-25T09:04:28.176Z,3.10
2018-01-25T09:05:28.048Z,3.13
2018-01-25T09:06:27.921Z,3.21
2018-01-25T09:07:27.794Z,3.30
2018-01-25T09:08:27.662Z,3.42
2018-01-25T09:09:27.535Z,3.42
2018-01-25T09:10:27.403Z,3.65
2018-01-25T09:11:27.277Z,3.78
2018-01-25T09:12:27.148Z,3.82
2018-01-25T09:13:27.019Z,3.88
2018-01-25T09:14:26.888Z,3.97
2018-01-25T09:15:26.762Z,4.12
2018-01-25T09:16:26.631Z,4.19
2018-01-25T09:17:26.504Z,4.26
2018-01-25T09:18:26.377Z,4.26
2018-01-25T09:19:26.247Z,4.26
2018-01-25T09:20:26.118Z,4.21
2018-01-25T09:21:26.047Z,4.33
2018-01-25T09:22:25.863Z,4.28
2018-01-25T09:23:25.733Z,4.39
2018-01-25T09:24:25.607Z,4.46
2018-01-25T09:25:25.478Z,4.47
2018-01-25T09:26:25.350Z,4.58
2018-01-25T09:27:25.219Z,4.37
2018-01-25T09:28:25.094Z,4.33
2018-01-25T09:29:24.968Z,4.24
2018-01-25T09:30:24.842Z,4.21
2018-01-25T09:31:24.713Z,4.29
2018-01-25T09:32:24.601Z,4.29
2018-01-25T09:33:24.454Z,4.42
2018-01-25T09:34:24.328Z,4.57
2018-01-25T09:35:24.199Z,4.67
2018-01-25T09:36:24.072Z,4.72
2018-01-25T09:37:23.944Z,4.72
2018-01-25T09:38:23.815Z,4.73
2018-01-25T09:39:23.689Z,4.55
2018-01-25T09:40:23.564Z,4.57
2018-01-25T09:41:23.435Z,4.59
2018-01-25T09:42:23.307Z,4.57
2018-01-25T09:43:23.211Z,4.58
2018-01-25T09:44:23.054Z,4.67
2018-01-25T09:45:22.923Z,4.67
2018-01-25T09:46:22.867Z,4.70
2018-01-25T09:47:22.672Z,4.77
2018-01-25T09:48:22.542Z,4.88
2018-01-25T09:49:22.416Z,5.09
2018-01-25T09:50:22.289Z,5.17
2018-01-25T09:51:22.160Z,5.28
2018-01-25T09:52:22.039Z,5.43
2018-01-25T09:53:21.907Z,5.59
2018-01-25T09:54:21.791Z,5.59
2018-01-25T09:55:21.655Z,5.77
2018-01-25T09:56:21.528Z,5.96
2018-01-25T09:57:21.403Z,6.01
2018-01-25T09:58:21.275Z,6.16
2018-01-25T09:59:21.148Z,6.28
2018-01-25T10:00:21.022Z,6.40
2018-01-25T10:01:20.895Z,6.32
2018-01-25T10:02:20.813Z,6.35
2018-01-25T10:03:20.642Z,6.33
2018-01-25T10:04:20.516Z,6.48
2018-01-25T10:05:20.394Z,6.47
2018-01-25T10:06:20.264Z,6.47
2018-01-25T10:07:20.165Z,6.61
2018-01-25T10:08:20.012Z,6.62
2018-01-25T10:09:19.886Z,6.56
2018-01-25T10:10:19.808Z,6.51
2018-01-25T10:11:19.635Z,6.59
2018-01-25T10:12:19.510Z,6.76
2018-01-25T10:13:19.400Z,6.72
2018-01-25T10:14:19.257Z,6.81
2018-01-25T10:15:19.134Z,6.89
2018-01-25T10:16:19.006Z,6.98
2018-01-25T10:17:18.882Z,7.19
2018-01-25T10:18:18.757Z,7.32
2018-01-25T10:19:18.628Z,7.58
2018-01-25T10:20:18.505Z,7.79
2018-01-25T10:21:18.381Z,8.02
2018-01-25T10:22:18.255Z,8.39
2018-01-25T10:23:18.133Z,8.65
2018-01-25T10:24:18.007Z,8.84
2018-01-25T10:25:17.882Z,9.05
2018-01-25T10:26:17.755Z,9.15
2018-01-25T10:27:17.644Z,9.42
2018-01-25T10:28:17.506Z,9.52
2018-01-25T10:29:17.386Z,9.91
2018-01-25T10:30:17.260Z,10.12
2018-01-25T10:31:17.135Z,10.19
2018-01-25T10:32:17.014Z,10.21
2018-01-25T10:33:16.892Z,10.47
2018-01-25T10:34:16.765Z,9.73
2018-01-25T10:35:16.644Z,8.50
2018-01-25T10:36:16.519Z,8.04
2018-01-25T10:37:16.398Z,8.26
2018-01-25T10:38:16.280Z,8.90
2018-01-25T10:39:16.206Z,9.35
2018-01-25T10:40:16.028Z,9.63
2018-01-25T10:41:15.906Z,9.83
2018-01-25T10:42:15.782Z,9.53
2018-01-25T10:43:15.660Z,9.52
2018-01-25T10:44:15.538Z,9.23
2018-01-25T10:45:15.415Z,9.32
2018-01-25T10:46:15.290Z,9.58
2018-01-25T10:47:15.170Z,9.88
2018-01-25T10:48:15.048Z,10.00
2018-01-25T10:49:14.926Z,10.12
2018-01-25T10:50:14.803Z,10.22
2018-01-25T10:51:14.679Z,10.01
2018-01-25T10:52:14.563Z,10.21
2018-01-25T10:53:14.434Z,10.37
2018-01-25T10:54:14.313Z,10.65
2018-01-25T10:55:14.188Z,10.86
2018-01-25T10:56:14.066Z,10.73
2018-01-25T10:57:13.947Z,10.63
2018-01-25T10:58:13.823Z,10.99
2018-01-25T10:59:13.702Z,10.73
2018-01-25T11:00:13.580Z,10.51
2018-01-25T11:01:13.463Z,10.56
2018-01-25T11:02:13.337Z,10.66
2018-01-25T11:03:13.214Z,10.84
2018-01-25T11:04:13.093Z,10.71
2018-01-25T11:05:12.970Z,10.46
2018-01-25T11:06:12.848Z,10.15
2018-01-25T11:07:12.727Z,9.93
2018-01-25T11:08:12.605Z,9.86
2018-01-25T11:09:12.485Z,9.58
2018-01-25T11:10:12.365Z,9.52
2018-01-25T11:11:12.242Z,9.50
2018-01-25T11:12:12.117Z,9.75
2018-01-25T11:13:11.992Z,9.85
2018-01-25T11:14:11.876Z,9.94
2018-01-25T11:15:11.752Z,9.89
2018-01-25T11:16:11.628Z,9.94
2018-01-25T11:17:11.513Z,9.58
2018-01-25T11:18:11.385Z,9.66
2018-01-25T11:19:11.264Z,9.42
2018-01-25T11:20:11.139Z,9.45
2018-01-25T11:21:11.018Z,9.12
2018-01-25T11:22:10.896Z,8.87
2018-01-25T11:23:10.774Z,9.04
2018-01-25T11:24:10.652Z,9.09
2018-01-25T11:25:10.532Z,9.24
2018-01-25T11:26:10.406Z,8.78
2018-01-25T11:27:10.286Z,8.65
2018-01-25T11:28:10.165Z,8.55
2018-01-25T11:29:10.037Z,8.51
2018-01-25T11:30:09.916Z,8.48
2018-01-25T11:31:09.798Z,8.47
2018-01-25T11:32:09.672Z,8.54
2018-01-25T11:33:09.550Z,8.65
2018-01-25T11:34:09.426Z,8.57
2018-01-25T11:35:09.301Z,8.62
2018-01-25T11:36:09.184Z,8.54
2018-01-25T11:37:09.058Z,8.36
2018-01-25T11:38:08.933Z,8.15
2018-01-25T11:39:08.810Z,8.32
2018-01-25T11:40:08.686Z,8.36
2018-01-25T11:41:08.564Z,8.48
2018-01-25T11:42:08.439Z,8.60
2018-01-25T11:43:08.314Z,8.71
2018-01-25T11:44:08.192Z,8.76
2018-01-25T11:45:08.069Z,8.48
2018-01-25T11:46:07.944Z,8.00
2018-01-25T11:47:07.844Z,7.99
2018-01-25T11:48:07.700Z,7.94
2018-01-25T11:49:07.574Z,7.97
2018-01-25T11:50:07.450Z,7.92
2018-01-25T11:51:07.327Z,7.99
2018-01-25T11:52:07.205Z,7.58
2018-01-25T11:53:07.082Z,7.59
2018-01-25T11:54:06.955Z,7.63
2018-01-25T11:55:06.833Z,7.81
2018-01-25T11:56:06.711Z,7.94
2018-01-25T11:57:06.585Z,8.07
2018-01-25T11:58:06.462Z,7.93
2018-01-25T11:59:06.338Z,7.92
2018-01-25T12:00:06.215Z,7.82
2018-01-25T12:01:06.089Z,7.78
2018-01-25T12:02:05.966Z,7.89
2018-01-25T12:03:05.844Z,7.82
2018-01-25T12:04:05.756Z,7.63
2018-01-25T12:05:05.592Z,7.75
2018-01-25T12:06:05.497Z,7.59
2018-01-25T12:07:05.344Z,7.59
2018-01-25T12:08:05.223Z,7.52
2018-01-25T12:09:05.096Z,7.49
2018-01-25T12:10:04.972Z,7.40
2018-01-25T12:11:04.849Z,7.53
2018-01-25T12:12:04.726Z,7.16
2018-01-25T12:13:04.603Z,7.22
2018-01-25T12:14:04.477Z,7.44
2018-01-25T12:15:04.349Z,7.47
2018-01-25T12:16:04.228Z,7.58
2018-01-25T12:17:04.103Z,7.58
2018-01-25T12:18:03.977Z,7.49
2018-01-25T12:19:03.855Z,7.34
2018-01-25T12:20:03.727Z,7.32
2018-01-25T12:21:03.606Z,7.38
2018-01-25T12:22:03.481Z,7.47
2018-01-25T12:23:03.358Z,7.47
2018-01-25T12:24:03.232Z,7.50
2018-01-25T12:25:03.107Z,7.52
2018-01-25T12:26:02.982Z,7.42
2018-01-25T12:27:02.864Z,6.98
2018-01-25T12:28:02.734Z,6.84
2018-01-25T12:29:02.612Z,6.76
2018-01-25T12:30:02.486Z,6.72
2018-01-25T12:31:02.363Z,6.77
2018-01-25T12:32:02.240Z,6.81
2018-01-25T12:33:02.114Z,6.87
2018-01-25T12:34:01.989Z,6.95
2018-01-25T12:35:01.867Z,6.84
2018-01-25T12:36:01.741Z,6.77
2018-01-25T12:37:01.619Z,6.69
2018-01-25T12:38:01.490Z,6.77
2018-01-25T12:39:01.367Z,6.61
2018-01-25T12:40:01.245Z,6.72
2018-01-25T12:41:01.117Z,6.54
2018-01-25T12:42:00.994Z,6.33
2018-01-25T12:43:00.866Z,6.51
2018-01-25T12:44:00.739Z,6.61
2018-01-25T12:45:00.616Z,6.66
2018-01-25T12:46:00.490Z,6.80
2018-01-25T12:47:00.367Z,6.86
2018-01-25T12:48:00.240Z,6.83
2018-01-25T12:49:00.122Z,6.76
2018-01-25T12:49:59.990Z,6.80
2018-01-25T12:50:59.863Z,6.91
2018-01-25T12:51:59.739Z,6.77
2018-01-25T12:52:59.614Z,6.79
2018-01-25T12:53:59.490Z,6.77
2018-01-25T12:54:59.371Z,6.68
2018-01-25T12:55:59.241Z,6.58
2018-01-25T12:56:59.114Z,6.62
2018-01-25T12:57:58.987Z,6.79
2018-01-25T12:58:58.864Z,6.79
2018-01-25T12:59:58.739Z,6.76
2018-01-25T13:00:58.611Z,6.87
2018-01-25T13:01:58.487Z,6.68
2018-01-25T13:02:58.361Z,6.62
2018-01-25T13:03:58.235Z,6.77
2018-01-25T13:04:58.111Z,6.58
2018-01-25T13:05:57.984Z,6.63
2018-01-25T13:06:57.860Z,6.50
2018-01-25T13:07:57.734Z,6.30
2018-01-25T13:08:57.722Z,6.10
2018-01-25T13:09:57.484Z,6.09
2018-01-25T13:10:57.360Z,5.81
2018-01-25T13:11:57.230Z,5.88
2018-01-25T13:12:57.125Z,6.07
2018-01-25T13:13:56.980Z,6.13
2018-01-25T13:14:56.858Z,6.28
2018-01-25T13:15:56.730Z,6.10